| time (UTC) | temp C | wind direction | speed KPH | gust KPH | rain 1hr cm | rain 24hr cm | rain mn cm | humidity % | barometer mb |
| 20260831093529 | 18 | 95 | 0.0 | 12.9 | 0.00 | 0.91 | 0.66 | 86 | 1016.0 |
| 20260831093032 | 18 | 118 | 0.0 | 12.9 | 0.08 | 0.91 | 0.66 | 86 | 1016.0 |
| 20260831092528 | 18 | 96 | 0.0 | 9.7 | 0.08 | 0.91 | 0.66 | 86 | 1017.0 |
| 20260831092028 | 18 | 130 | 6.4 | 12.9 | 0.08 | 0.91 | 0.66 | 86 | 1017.0 |
| 20260831091528 | 18 | 103 | 6.4 | 17.7 | 0.08 | 0.91 | 0.66 | 86 | 1017.0 |
| 20260831091028 | 18 | 105 | 8.0 | 17.7 | 0.08 | 0.91 | 0.66 | 86 | 1017.0 |
| 20260831090528 | 18 | 81 | 12.9 | 12.9 | 0.08 | 0.91 | 0.66 | 86 | 1017.0 |
| 20260831090029 | 18 | 95 | 0.0 | 12.9 | 0.08 | 0.91 | 0.66 | 86 | 1017.0 |
| 20260831085528 | 18 | 109 | 0.0 | 16.1 | 0.08 | 0.91 | 0.66 | 86 | 1017.0 |
| 20260831085028 | 18 | 85 | 11.3 | 16.1 | 0.08 | 0.91 | 0.66 | 86 | 1017.0 |
| 20260831084028 | 18 | 105 | 6.4 | 14.5 | 0.08 | 0.91 | 0.66 | 86 | 1017.0 |
| 20260831083528 | 18 | 98 | 6.4 | 14.5 | 0.08 | 0.91 | 0.66 | 86 | 1017.0 |
| 20260831083028 | 18 | 103 | 0.0 | 12.9 | 0.10 | 0.84 | 0.58 | 86 | 1017.0 |
| 20260831082528 | 18 | 100 | 8.0 | 12.9 | 0.10 | 0.84 | 0.58 | 85 | 1017.0 |
| 20260831082029 | 18 | 94 | 6.4 | 12.9 | 0.10 | 0.84 | 0.58 | 85 | 1017.0 |
| 20260831081528 | 18 | 86 | 6.4 | 12.9 | 0.10 | 0.84 | 0.58 | 85 | 1017.0 |
| 20260831080527 | 18 | 91 | 0.0 | 14.5 | 0.18 | 0.84 | 0.58 | 85 | 1017.0 |
| 20260831080028 | 18 | 89 | 6.4 | 14.5 | 0.18 | 0.84 | 0.58 | 85 | 1017.0 |
| 20260831075027 | 18 | 78 | 0.0 | 14.5 | 0.38 | 0.84 | 0.58 | 85 | 1017.0 |
| 20260831074527 | 18 | 96 | 6.4 | 14.5 | 0.38 | 0.84 | 0.58 | 85 | 1017.0 |
| 20260831074027 | 18 | 90 | 6.4 | 14.5 | 0.38 | 0.84 | 0.58 | 85 | 1017.0 |
| 20260831073527 | 18 | 81 | 6.4 | 14.5 | 0.38 | 0.84 | 0.58 | 85 | 1017.0 |
| 20260831073027 | 18 | 128 | 6.4 | 12.9 | 0.28 | 0.74 | 0.48 | 85 | 1017.0 |
| 20260831072528 | 18 | 96 | 0.0 | 14.5 | 0.30 | 0.74 | 0.48 | 84 | 1017.0 |
| 20260831071526 | 18 | 94 | 0.0 | 14.5 | 0.30 | 0.74 | 0.48 | 84 | 1017.0 |
| 20260831071027 | 18 | 110 | 6.4 | 14.5 | 0.25 | 0.66 | 0.41 | 84 | 1018.0 |
| 20260831070527 | 18 | 94 | 6.4 | 12.9 | 0.25 | 0.66 | 0.41 | 84 | 1018.0 |
| 20260831070026 | 18 | 100 | 9.7 | 14.5 | 0.28 | 0.66 | 0.41 | 84 | 1018.0 |
| 20260831065526 | 18 | 115 | 0.0 | 14.5 | 0.23 | 0.58 | 0.33 | 84 | 1018.0 |
| 20260831065026 | 18 | 108 | 9.7 | 11.3 | 0.10 | 0.46 | 0.20 | 84 | 1018.0 |
| 20260831064527 | 18 | 118 | 8.0 | 9.7 | 0.10 | 0.46 | 0.20 | 84 | 1018.0 |
| 20260831064026 | 18 | 109 | 0.0 | 9.7 | 0.13 | 0.46 | 0.20 | 84 | 1018.0 |
| 20260831063526 | 18 | 97 | 0.0 | 11.3 | 0.18 | 0.46 | 0.20 | 84 | 1018.0 |
| 20260831062526 | 18 | 83 | 8.0 | 12.9 | 0.15 | 0.43 | 0.18 | 84 | 1018.0 |
| 20260831062026 | 18 | 90 | 6.4 | 9.7 | 0.15 | 0.43 | 0.18 | 84 | 1018.0 |
| 20260831061527 | 18 | 94 | 0.0 | 9.7 | 0.15 | 0.43 | 0.18 | 84 | 1018.0 |
| 20260831055526 | 18 | 95 | 0.0 | 14.5 | 0.10 | 0.36 | 0.10 | 84 | 1018.0 |
| 20260831055026 | 18 | 94 | 6.4 | 14.5 | 0.10 | 0.36 | 0.10 | 83 | 1018.0 |
| 20260831054026 | 18 | 116 | 6.4 | 11.3 | 0.08 | 0.33 | 0.08 | 83 | 1018.0 |
| 20260831053526 | 18 | 102 | 0.0 | 11.3 | 0.03 | 0.28 | 0.03 | 83 | 1018.0 |
| 20260831053026 | 18 | 94 | 8.0 | 9.7 | 0.03 | 0.28 | 0.03 | 83 | 1018.0 |
| 20260831052525 | 18 | 89 | 6.4 | 9.7 | 0.03 | 0.28 | 0.03 | 83 | 1018.0 |
| 20260831052026 | 18 | 93 | 0.0 | 12.9 | 0.03 | 0.28 | 0.03 | 83 | 1018.0 |
| 20260831051525 | 18 | 95 | 6.4 | 12.9 | 0.03 | 0.28 | 0.03 | 83 | 1018.0 |
| 20260831050525 | 18 | 88 | 6.4 | 11.3 | 0.00 | 0.25 | 0.00 | 83 | 1018.0 |
| 20260831050025 | 18 | 93 | 6.4 | 9.7 | 0.00 | 0.25 | 0.00 | 83 | 1018.0 |
| 20260831045526 | 18 | 82 | 0.0 | 9.7 | 0.00 | 0.25 | 0.00 | 83 | 1018.0 |
| 20260831045025 | 18 | 89 | 6.4 | 9.7 | 0.00 | 0.25 | 0.00 | 83 | 1018.0 |
| 20260831044525 | 18 | 88 | 0.0 | 9.7 | 0.00 | 0.25 | 0.00 | 83 | 1018.0 |
| 20260831044025 | 18 | 88 | 6.4 | 9.7 | 0.00 | 0.25 | 0.00 | 83 | 1018.0 |
| 20260831043525 | 18 | 88 | 0.0 | 9.7 | 0.00 | 0.25 | 0.00 | 82 | 1018.0 |
| 20260831043024 | 18 | 88 | 6.4 | 12.9 | 0.00 | 0.25 | 0.00 | 82 | 1018.0 |
| 20260831042525 | 18 | 84 | 0.0 | 12.9 | 0.00 | 0.25 | 0.00 | 82 | 1018.0 |
| 20260831041525 | 18 | 103 | 9.7 | 12.9 | 0.00 | 0.25 | 0.00 | 82 | 1018.0 |
| 20260831041025 | 18 | 85 | 9.7 | 12.9 | 0.00 | 0.25 | 0.00 | 82 | 1018.0 |
| 20260831040024 | 18 | 92 | 0.0 | 9.7 | 0.00 | 0.25 | 0.00 | 82 | 1018.0 |
| 20260831035524 | 18 | 88 | 0.0 | 11.3 | 0.00 | 0.25 | 0.25 | 82 | 1018.0 |
| 20260831035024 | 18 | 86 | 6.4 | 11.3 | 0.00 | 0.25 | 0.25 | 82 | 1018.0 |
| 20260831034524 | 18 | 84 | 6.4 | 14.5 | 0.00 | 0.25 | 0.25 | 81 | 1018.0 |
| 20260831034024 | 18 | 80 | 8.0 | 14.5 | 0.00 | 0.25 | 0.25 | 81 | 1018.0 |
| 20260831033525 | 18 | 88 | 9.7 | 9.7 | 0.00 | 0.25 | 0.25 | 81 | 1018.0 |
| 20260831033024 | 18 | 89 | 6.4 | 9.7 | 0.00 | 0.25 | 0.25 | 81 | 1018.0 |
| 20260831032524 | 18 | 89 | 6.4 | 12.9 | 0.00 | 0.25 | 0.25 | 81 | 1018.0 |
| 20260831032024 | 18 | 102 | 6.4 | 12.9 | 0.00 | 0.25 | 0.25 | 81 | 1018.0 |
| 20260831031524 | 18 | 88 | 0.0 | 9.7 | 0.00 | 0.25 | 0.25 | 81 | 1018.0 |
| 20260831031025 | 18 | 99 | 0.0 | 11.3 | 0.00 | 0.25 | 0.25 | 81 | 1018.0 |
| 20260831030524 | 18 | 99 | 0.0 | 11.3 | 0.00 | 0.25 | 0.25 | 81 | 1018.0 |
| 20260831030024 | 18 | 97 | 6.4 | 11.3 | 0.00 | 0.25 | 0.25 | 81 | 1018.0 |
| 20260831025024 | 18 | 111 | 0.0 | 9.7 | 0.00 | 0.25 | 0.25 | 81 | 1018.0 |
| 20260831024524 | 18 | 112 | 6.4 | 9.7 | 0.00 | 0.25 | 0.25 | 81 | 1018.0 |
| 20260831023524 | 18 | 113 | 0.0 | 9.7 | 0.00 | 0.25 | 0.25 | 81 | 1018.0 |
| 20260831022523 | 18 | 112 | 8.0 | 9.7 | 0.03 | 0.25 | 0.25 | 81 | 1018.0 |
| 20260831022023 | 18 | 123 | 8.0 | 9.7 | 0.03 | 0.25 | 0.25 | 81 | 1018.0 |
| 20260831021523 | 18 | 123 | 0.0 | 11.3 | 0.03 | 0.25 | 0.25 | 80 | 1018.0 |
| 20260831021023 | 18 | 128 | 0.0 | 11.3 | 0.03 | 0.25 | 0.25 | 80 | 1018.0 |
| 20260831020524 | 18 | 127 | 6.4 | 9.7 | 0.03 | 0.25 | 0.25 | 80 | 1018.0 |
| 20260831020023 | 18 | 127 | 0.0 | 8.0 | 0.03 | 0.25 | 0.25 | 80 | 1018.0 |
| 20260831014523 | 18 | 121 | 0.0 | 11.3 | 0.03 | 0.25 | 0.25 | 80 | 1018.0 |
| 20260831014023 | 18 | 117 | 0.0 | 12.9 | 0.03 | 0.25 | 0.25 | 80 | 1018.0 |
| 20260831013523 | 18 | 132 | 0.0 | 12.9 | 0.03 | 0.25 | 0.25 | 80 | 1018.0 |
| 20260831013024 | 18 | 164 | 0.0 | 12.9 | 0.08 | 0.23 | 0.23 | 79 | 1018.0 |
| 20260831012523 | 18 | 129 | 9.7 | 12.9 | 0.08 | 0.23 | 0.23 | 79 | 1018.0 |
| 20260831012022 | 18 | 129 | 0.0 | 16.1 | 0.08 | 0.23 | 0.23 | 79 | 1018.0 |
| 20260831011523 | 18 | 129 | 6.4 | 16.1 | 0.08 | 0.23 | 0.23 | 79 | 1018.0 |
| 20260831011023 | 18 | 232 | 8.0 | 14.5 | 0.08 | 0.23 | 0.23 | 78 | 1018.0 |
| 20260831010522 | 18 | 147 | 6.4 | 14.5 | 0.10 | 0.23 | 0.23 | 77 | 1018.0 |
| 20260831010023 | 18 | 134 | 6.4 | 11.3 | 0.10 | 0.23 | 0.23 | 77 | 1018.0 |
| 20260831005522 | 18 | 134 | 0.0 | 11.3 | 0.10 | 0.23 | 0.23 | 77 | 1018.0 |
| 20260831005022 | 18 | 178 | 0.0 | 9.7 | 0.10 | 0.23 | 0.23 | 76 | 1018.0 |
| 20260831004522 | 18 | 178 | 0.0 | 9.7 | 0.10 | 0.23 | 0.23 | 76 | 1018.0 |
| 20260831004023 | 18 | 175 | 0.0 | 9.7 | 0.10 | 0.23 | 0.23 | 76 | 1018.0 |
| 20260831003522 | 18 | 186 | 0.0 | 12.9 | 0.10 | 0.23 | 0.23 | 76 | 1018.0 |
| 20260831003022 | 18 | 192 | 0.0 | 12.9 | 0.03 | 0.15 | 0.15 | 76 | 1018.0 |
| 20260831002022 | 18 | 180 | 6.4 | 14.5 | 0.03 | 0.15 | 0.15 | 76 | 1018.0 |
| 20260831001522 | 18 | 188 | 6.4 | 12.9 | 0.03 | 0.15 | 0.15 | 76 | 1018.0 |
| 20260831001022 | 18 | 192 | 0.0 | 11.3 | 0.03 | 0.15 | 0.15 | 75 | 1018.0 |
| 20260831000522 | 18 | 190 | 0.0 | 11.3 | 0.00 | 0.13 | 0.13 | 75 | 1018.0 |
| 20260831000023 | 18 | 186 | 0.0 | 9.7 | 0.00 | 0.13 | 0.13 | 75 | 1018.0 |
| 20260830235522 | 18 | 198 | 0.0 | 9.7 | 0.00 | 0.13 | 0.13 | 74 | 1018.0 |
| 20260830235022 | 18 | 197 | 0.0 | 9.7 | 0.00 | 0.13 | 0.13 | 74 | 1018.0 |
| 20260830234522 | 18 | 198 | 0.0 | 9.7 | 0.00 | 0.13 | 0.13 | 74 | 1018.0 |
| 20260830234022 | 18 | 198 | 6.4 | 9.7 | 0.00 | 0.13 | 0.13 | 74 | 1018.0 |
| 20260830233522 | 19 | 199 | 0.0 | 8.0 | 0.00 | 0.13 | 0.13 | 73 | 1018.0 |
| 20260830233022 | 19 | 198 | 0.0 | 8.0 | 0.00 | 0.13 | 0.13 | 73 | 1018.0 |
| 20260830232521 | 19 | 198 | 6.4 | 6.4 | 0.00 | 0.13 | 0.13 | 73 | 1018.0 |
| 20260830232021 | 19 | 198 | 0.0 | 6.4 | 0.00 | 0.13 | 0.13 | 73 | 1018.0 |
| 20260830231521 | 19 | 199 | 0.0 | 11.3 | 0.00 | 0.13 | 0.13 | 73 | 1018.0 |
| 20260830231022 | 19 | 198 | 0.0 | 11.3 | 0.00 | 0.13 | 0.13 | 72 | 1018.0 |
| 20260830230522 | 19 | 198 | 0.0 | 9.7 | 0.00 | 0.13 | 0.13 | 72 | 1018.0 |
| 20260830230021 | 19 | 199 | 0.0 | 8.0 | 0.00 | 0.13 | 0.13 | 72 | 1018.0 |
| 20260830225021 | 19 | 198 | 0.0 | 6.4 | 0.00 | 0.13 | 0.13 | 72 | 1018.0 |
| 20260830224021 | 19 | 198 | 6.4 | 11.3 | 0.00 | 0.13 | 0.13 | 72 | 1018.0 |
| 20260830223522 | 19 | 189 | 6.4 | 9.7 | 0.00 | 0.13 | 0.13 | 72 | 1018.0 |
| 20260830223021 | 19 | 187 | 0.0 | 9.7 | 0.00 | 0.13 | 0.13 | 72 | 1018.0 |
| 20260830222521 | 19 | 188 | 0.0 | 9.7 | 0.00 | 0.13 | 0.13 | 71 | 1018.0 |
| 20260830221521 | 19 | 188 | 0.0 | 11.3 | 0.00 | 0.13 | 0.13 | 71 | 1018.0 |
| 20260830221021 | 19 | 178 | 6.4 | 11.3 | 0.00 | 0.13 | 0.13 | 71 | 1018.0 |
| 20260830220521 | 19 | 168 | 6.4 | 11.3 | 0.00 | 0.13 | 0.13 | 70 | 1018.0 |
| 20260830220020 | 19 | 190 | 0.0 | 9.7 | 0.00 | 0.13 | 0.13 | 70 | 1018.0 |
| 20260830215520 | 19 | 191 | 0.0 | 14.5 | 0.00 | 0.13 | 0.13 | 70 | 1018.0 |
| 20260830215020 | 19 | 258 | 8.0 | 14.5 | 0.00 | 0.13 | 0.13 | 69 | 1018.0 |
| 20260830214520 | 19 | 194 | 9.7 | 12.9 | 0.03 | 0.13 | 0.13 | 69 | 1018.0 |
| 20260830214020 | 20 | 179 | 9.7 | 14.5 | 0.03 | 0.13 | 0.13 | 69 | 1018.0 |
| 20260830213521 | 20 | 154 | 6.4 | 17.7 | 0.03 | 0.13 | 0.13 | 69 | 1018.0 |
| 20260830213020 | 20 | 190 | 9.7 | 17.7 | 0.03 | 0.13 | 0.13 | 69 | 1018.0 |
| 20260830212520 | 20 | 187 | 6.4 | 12.9 | 0.03 | 0.13 | 0.13 | 68 | 1018.0 |
| 20260830211520 | 20 | 185 | 0.0 | 14.5 | 0.03 | 0.13 | 0.13 | 67 | 1018.0 |
| 20260830211020 | 20 | 190 | 6.4 | 16.1 | 0.03 | 0.13 | 0.13 | 66 | 1018.0 |
| 20260830210019 | 20 | 240 | 6.4 | 17.7 | 0.03 | 0.13 | 0.13 | 65 | 1018.0 |
| 20260830205519 | 20 | 199 | 11.3 | 14.5 | 0.03 | 0.13 | 0.13 | 65 | 1018.0 |
| 20260830205020 | 20 | 250 | 0.0 | 22.5 | 0.03 | 0.13 | 0.13 | 64 | 1018.0 |
| 20260830204519 | 20 | 273 | 12.9 | 22.5 | 0.00 | 0.10 | 0.10 | 64 | 1018.0 |
| 20260830204019 | 20 | 159 | 6.4 | 16.1 | 0.00 | 0.10 | 0.10 | 64 | 1018.0 |
| 20260830203519 | 20 | 214 | 0.0 | 14.5 | 0.00 | 0.10 | 0.10 | 63 | 1018.0 |
| 20260830203019 | 20 | 142 | 6.4 | 19.3 | 0.00 | 0.10 | 0.10 | 63 | 1018.0 |
| 20260830202019 | 20 | 184 | 6.4 | 24.1 | 0.00 | 0.10 | 0.10 | 63 | 1018.0 |
| 20260830201519 | 20 | 259 | 9.7 | 16.1 | 0.00 | 0.10 | 0.10 | 62 | 1018.0 |
| 20260830201019 | 20 | 199 | 11.3 | 20.9 | 0.00 | 0.10 | 0.10 | 62 | 1018.0 |
| 20260830200519 | 20 | 259 | 11.3 | 20.9 | 0.00 | 0.10 | 0.10 | 62 | 1018.0 |
| 20260830200019 | 20 | 194 | 9.7 | 22.5 | 0.00 | 0.10 | 0.10 | 61 | 1018.0 |
| 20260830195019 | 20 | 193 | 9.7 | 20.9 | 0.00 | 0.10 | 0.10 | 60 | 1018.0 |
| 20260830194019 | 20 | 246 | 6.4 | 22.5 | 0.00 | 0.10 | 0.10 | 60 | 1018.0 |
| 20260830193520 | 20 | 209 | 6.4 | 22.5 | 0.00 | 0.10 | 0.10 | 60 | 1018.0 |
| 20260830193019 | 21 | 171 | 6.4 | 19.3 | 0.00 | 0.10 | 0.10 | 60 | 1018.0 |
| 20260830192519 | 21 | 173 | 6.4 | 22.5 | 0.00 | 0.10 | 0.10 | 60 | 1018.0 |
| 20260830192018 | 21 | 154 | 9.7 | 22.5 | 0.00 | 0.10 | 0.10 | 60 | 1018.0 |
| 20260830191518 | 21 | 248 | 12.9 | 16.1 | 0.00 | 0.10 | 0.10 | 59 | 1018.0 |
| 20260830191018 | 21 | 212 | 6.4 | 16.1 | 0.00 | 0.10 | 0.10 | 59 | 1018.0 |
| 20260830190519 | 21 | 197 | 9.7 | 24.1 | 0.00 | 0.10 | 0.10 | 58 | 1018.0 |
| 20260830190019 | 21 | 153 | 14.5 | 24.1 | 0.00 | 0.10 | 0.10 | 57 | 1018.0 |
| 20260830185018 | 21 | 188 | 9.7 | 22.5 | 0.00 | 0.10 | 0.10 | 60 | 1018.0 |
| 20260830184518 | 21 | 196 | 0.0 | 19.3 | 0.00 | 0.10 | 0.10 | 59 | 1018.0 |
| 20260830184018 | 21 | 176 | 6.4 | 27.4 | 0.00 | 0.10 | 0.10 | 59 | 1018.0 |
| 20260830183518 | 21 | 229 | 8.0 | 27.4 | 0.00 | 0.10 | 0.10 | 59 | 1018.0 |
| 20260830182018 | 21 | 272 | 11.3 | 30.6 | 0.00 | 0.10 | 0.10 | 61 | 1018.0 |
| 20260830181518 | 21 | 259 | 16.1 | 29.0 | 0.00 | 0.10 | 0.10 | 62 | 1018.0 |
| 20260830181018 | 21 | 163 | 9.7 | 27.4 | 0.00 | 0.10 | 0.10 | 61 | 1018.0 |
| 20260830180517 | 21 | 196 | 12.9 | 29.0 | 0.00 | 0.10 | 0.10 | 67 | 1018.0 |
| 20260830175018 | 21 | 220 | 9.7 | 25.7 | 0.00 | 0.10 | 0.10 | 71 | 1018.0 |
| 20260830174517 | 21 | 233 | 11.3 | 24.1 | 0.00 | 0.10 | 0.10 | 72 | 1018.0 |
| 20260830174017 | 21 | 209 | 12.9 | 24.1 | 0.00 | 0.10 | 0.10 | 73 | 1018.0 |
| 20260830173517 | 20 | 270 | 6.4 | 24.1 | 0.00 | 0.10 | 0.10 | 74 | 1018.0 |
| 20260830173017 | 20 | 248 | 14.5 | 24.1 | 0.00 | 0.10 | 0.10 | 76 | 1018.0 |
| 20260830172518 | 20 | 181 | 6.4 | 24.1 | 0.00 | 0.10 | 0.10 | 77 | 1018.0 |
| 20260830172016 | 20 | 149 | 11.3 | 19.3 | 0.00 | 0.10 | 0.10 | 78 | 1018.0 |
| 20260830170516 | 19 | 182 | 8.0 | 19.3 | 0.00 | 0.10 | 0.10 | 79 | 1019.0 |
| 20260830170016 | 19 | 248 | 6.4 | 19.3 | 0.00 | 0.10 | 0.10 | 79 | 1019.0 |
| 20260830165516 | 18 | 162 | 0.0 | 14.5 | 0.00 | 0.10 | 0.10 | 79 | 1019.0 |
| 20260830165017 | 18 | 197 | 6.4 | 14.5 | 0.00 | 0.10 | 0.10 | 79 | 1019.0 |
| 20260830164516 | 18 | 204 | 6.4 | 14.5 | 0.00 | 0.10 | 0.10 | 79 | 1019.0 |
| 20260830164016 | 18 | 175 | 6.4 | 12.9 | 0.00 | 0.10 | 0.10 | 79 | 1019.0 |
| 20260830163016 | 18 | 155 | 0.0 | 12.9 | 0.00 | 0.10 | 0.10 | 79 | 1019.0 |
| 20260830162517 | 18 | 151 | 8.0 | 14.5 | 0.00 | 0.10 | 0.10 | 79 | 1019.0 |
| 20260830162016 | 18 | 182 | 12.9 | 14.5 | 0.00 | 0.10 | 0.10 | 79 | 1019.0 |
| 20260830161015 | 18 | 189 | 0.0 | 14.5 | 0.00 | 0.10 | 0.10 | 79 | 1019.0 |
| 20260830160516 | 18 | 271 | 6.4 | 14.5 | 0.00 | 0.10 | 0.10 | 79 | 1019.0 |
| 20260830160015 | 18 | 178 | 14.5 | 14.5 | 0.00 | 0.10 | 0.10 | 80 | 1019.0 |
| 20260830155517 | 18 | 198 | 0.0 | 9.7 | 0.00 | 0.10 | 0.10 | 80 | 1019.0 |
| 20260830155015 | 18 | 202 | 0.0 | 9.7 | 0.00 | 0.10 | 0.10 | 80 | 1019.0 |
| 20260830154515 | 18 | 179 | 0.0 | 9.7 | 0.00 | 0.10 | 0.10 | 80 | 1019.0 |
| 20260830154015 | 18 | 171 | 0.0 | 9.7 | 0.00 | 0.10 | 0.10 | 80 | 1019.0 |
| 20260830153515 | 18 | 189 | 0.0 | 9.7 | 0.00 | 0.10 | 0.10 | 80 | 1019.0 |
| 20260830153015 | 18 | 160 | 8.0 | 9.7 | 0.00 | 0.10 | 0.10 | 80 | 1019.0 |
| 20260830152515 | 18 | 156 | 0.0 | 9.7 | 0.00 | 0.10 | 0.10 | 80 | 1019.0 |
| 20260830152016 | 18 | 154 | 0.0 | 9.7 | 0.00 | 0.13 | 0.10 | 80 | 1019.0 |
| 20260830151515 | 18 | 154 | 9.7 | 9.7 | 0.00 | 0.13 | 0.10 | 80 | 1019.0 |
| 20260830151015 | 18 | 150 | 0.0 | 9.7 | 0.00 | 0.13 | 0.10 | 79 | 1019.0 |
| 20260830150515 | 18 | 145 | 0.0 | 9.7 | 0.00 | 0.13 | 0.10 | 79 | 1019.0 |
| 20260830145515 | 18 | 146 | 0.0 | 9.7 | 0.00 | 0.13 | 0.10 | 78 | 1019.0 |
| 20260830145015 | 18 | 146 | 6.4 | 9.7 | 0.00 | 0.13 | 0.10 | 78 | 1019.0 |
| 20260830144515 | 18 | 170 | 0.0 | 8.0 | 0.00 | 0.13 | 0.10 | 78 | 1019.0 |
| 20260830144015 | 18 | 146 | 6.4 | 8.0 | 0.00 | 0.13 | 0.10 | 78 | 1019.0 |
| 20260830143015 | 18 | 146 | 0.0 | 11.3 | 0.00 | 0.13 | 0.10 | 77 | 1019.0 |
| 20260830142513 | 18 | 145 | 9.7 | 9.7 | 0.00 | 0.13 | 0.10 | 77 | 1019.0 |
| 20260830142013 | 18 | 165 | 0.0 | 8.0 | 0.00 | 0.13 | 0.10 | 76 | 1019.0 |
| 20260830141513 | 18 | 153 | 0.0 | 8.0 | 0.00 | 0.13 | 0.10 | 76 | 1019.0 |
| 20260830141014 | 18 | 157 | 8.0 | 8.0 | 0.00 | 0.13 | 0.10 | 75 | 1019.0 |
| 20260830140513 | 18 | 148 | 0.0 | 8.0 | 0.03 | 0.13 | 0.10 | 75 | 1019.0 |
| 20260830140013 | 18 | 181 | 6.4 | 9.7 | 0.03 | 0.13 | 0.10 | 75 | 1019.0 |
| 20260830135513 | 18 | 210 | 8.0 | 9.7 | 0.03 | 0.13 | 0.10 | 74 | 1019.0 |
| 20260830135014 | 18 | 356 | 0.0 | 6.4 | 0.05 | 0.13 | 0.10 | 74 | 1019.0 |
| 20260830134513 | 18 | 356 | 0.0 | 8.0 | 0.08 | 0.13 | 0.10 | 74 | 1019.0 |
| 20260830134012 | 17 | 356 | 0.0 | 8.0 | 0.08 | 0.13 | 0.10 | 74 | 1019.0 |
| 20260830133513 | 17 | 356 | 0.0 | 6.4 | 0.10 | 0.13 | 0.10 | 73 | 1019.0 |
| 20260830133013 | 17 | 356 | 0.0 | 0.0 | 0.10 | 0.13 | 0.10 | 73 | 1019.0 |
| 20260830132512 | 17 | 356 | 0.0 | 0.0 | 0.10 | 0.13 | 0.10 | 73 | 1019.0 |
| 20260830132012 | 17 | 356 | 0.0 | 0.0 | 0.10 | 0.13 | 0.10 | 73 | 1019.0 |
| 20260830131513 | 17 | 356 | 0.0 | 0.0 | 0.10 | 0.13 | 0.10 | 73 | 1019.0 |
| 20260830130512 | 17 | 356 | 0.0 | 6.4 | 0.08 | 0.10 | 0.08 | 72 | 1019.0 |
| 20260830130012 | 17 | 356 | 6.4 | 9.7 | 0.08 | 0.10 | 0.08 | 72 | 1019.0 |
| 20260830125512 | 17 | 356 | 0.0 | 12.9 | 0.08 | 0.10 | 0.08 | 72 | 1019.0 |
| 20260830125012 | 17 | 356 | 0.0 | 12.9 | 0.05 | 0.08 | 0.05 | 72 | 1019.0 |
| 20260830124512 | 17 | 0 | 0.0 | 14.5 | 0.03 | 0.05 | 0.03 | 72 | 1019.0 |
| 20260830124011 | 17 | 1 | 8.0 | 14.5 | 0.03 | 0.05 | 0.03 | 72 | 1019.0 |
| 20260830123512 | 17 | 8 | 9.7 | 14.5 | 0.00 | 0.03 | 0.00 | 72 | 1019.0 |
| 20260830123012 | 17 | 338 | 9.7 | 14.5 | 0.00 | 0.03 | 0.00 | 72 | 1019.0 |
| 20260830122011 | 17 | 306 | 9.7 | 14.5 | 0.00 | 0.03 | 0.00 | 71 | 1019.0 |
| 20260830121011 | 17 | 339 | 6.4 | 16.1 | 0.00 | 0.03 | 0.00 | 71 | 1018.0 |
| 20260830120511 | 17 | 339 | 14.5 | 16.1 | 0.00 | 0.03 | 0.00 | 71 | 1018.0 |
| 20260830120011 | 17 | 4 | 12.9 | 16.1 | 0.00 | 0.03 | 0.00 | 71 | 1018.0 |
| 20260830115512 | 17 | 6 | 9.7 | 16.1 | 0.00 | 0.03 | 0.00 | 71 | 1018.0 |
| 20260830115011 | 17 | 356 | 6.4 | 16.1 | 0.00 | 0.03 | 0.00 | 71 | 1018.0 |
| 20260830114511 | 17 | 339 | 14.5 | 16.1 | 0.00 | 0.03 | 0.00 | 71 | 1018.0 |
| 20260830113511 | 17 | 23 | 0.0 | 14.5 | 0.00 | 0.03 | 0.00 | 71 | 1018.0 |
| 20260830113010 | 17 | 13 | 9.7 | 14.5 | 0.00 | 0.03 | 0.00 | 71 | 1018.0 |
| 20260830112511 | 17 | 356 | 9.7 | 16.1 | 0.00 | 0.03 | 0.00 | 71 | 1018.0 |
| 20260830112011 | 17 | 11 | 9.7 | 16.1 | 0.00 | 0.03 | 0.00 | 71 | 1018.0 |
| 20260830111511 | 17 | 356 | 11.3 | 14.5 | 0.00 | 0.03 | 0.00 | 70 | 1018.0 |
| 20260830111010 | 17 | 6 | 9.7 | 12.9 | 0.00 | 0.03 | 0.00 | 70 | 1018.0 |
| 20260830110510 | 17 | 9 | 6.4 | 12.9 | 0.00 | 0.03 | 0.00 | 70 | 1018.0 |
| 20260830110010 | 17 | 2 | 9.7 | 9.7 | 0.00 | 0.03 | 0.00 | 70 | 1018.0 |
| 20260830105511 | 17 | 356 | 6.4 | 9.7 | 0.00 | 0.05 | 0.00 | 70 | 1018.0 |
| 20260830105010 | 17 | 5 | 9.7 | 9.7 | 0.00 | 0.05 | 0.00 | 70 | 1018.0 |
| 20260830104510 | 17 | 4 | 8.0 | 9.7 | 0.00 | 0.05 | 0.00 | 70 | 1018.0 |
| 20260830104010 | 17 | 5 | 6.4 | 9.7 | 0.00 | 0.05 | 0.00 | 69 | 1018.0 |
| 20260830103510 | 17 | 5 | 0.0 | 8.0 | 0.00 | 0.05 | 0.00 | 69 | 1018.0 |
| 20260830102510 | 17 | 5 | 8.0 | 9.7 | 0.00 | 0.05 | 0.00 | 69 | 1018.0 |
| 20260830101509 | 17 | 4 | 6.4 | 9.7 | 0.00 | 0.05 | 0.00 | 69 | 1018.0 |
| 20260830101010 | 17 | 4 | 8.0 | 9.7 | 0.00 | 0.05 | 0.00 | 69 | 1018.0 |
| 20260830100509 | 17 | 4 | 6.4 | 9.7 | 0.00 | 0.05 | 0.00 | 68 | 1018.0 |
| 20260830100009 | 17 | 4 | 0.0 | 9.7 | 0.00 | 0.05 | 0.00 | 68 | 1018.0 |
| 20260830095009 | 17 | 181 | 6.4 | 9.7 | 0.00 | 0.05 | 0.00 | 68 | 1018.0 |
| 20260830094509 | 17 | 171 | 0.0 | 8.0 | 0.00 | 0.05 | 0.00 | 68 | 1018.0 |